createdAt,value
2023-05-01T00:00:05.586Z,9.08
2023-05-01T00:02:34.260Z,9.06
2023-05-01T00:05:04.352Z,8.91
2023-05-01T00:07:33.306Z,8.90
2023-05-01T00:10:02.247Z,8.88
2023-05-01T00:12:31.031Z,8.94
2023-05-01T00:14:59.597Z,8.84
2023-05-01T00:17:28.593Z,8.70
2023-05-01T00:19:57.854Z,8.62
2023-05-01T00:22:26.330Z,8.59
2023-05-01T00:24:54.661Z,8.66
2023-05-01T00:27:23.072Z,8.67
2023-05-01T00:29:52.013Z,8.53
2023-05-01T00:32:20.263Z,8.44
2023-05-01T00:34:49.349Z,8.41
2023-05-01T00:37:18.345Z,8.41
2023-05-01T00:39:47.317Z,8.53
2023-05-01T00:42:16.521Z,8.63
2023-05-01T00:44:45.033Z,8.67
2023-05-01T00:47:14.109Z,8.60
2023-05-01T00:49:43.286Z,8.64
2023-05-01T00:52:11.699Z,8.64
2023-05-01T00:54:41.057Z,8.44
2023-05-01T00:57:10.546Z,8.54
2023-05-01T00:59:39.468Z,8.64
2023-05-01T01:02:08.039Z,8.65
2023-05-01T01:04:36.549Z,8.67
2023-05-01T01:07:28.486Z,8.53
2023-05-01T01:10:14.586Z,8.45
2023-05-01T01:12:49.537Z,8.35
2023-05-01T01:15:18.072Z,8.41
2023-05-01T01:18:06.120Z,8.22
2023-05-01T01:20:50.529Z,8.20
2023-05-01T01:23:43.116Z,8.31
2023-05-01T01:26:41.299Z,8.32
2023-05-01T01:29:27.203Z,8.25
2023-05-01T01:32:19.328Z,8.28
2023-05-01T01:34:54.346Z,8.41
2023-05-01T01:37:28.606Z,8.30
2023-05-01T01:40:08.771Z,8.15
2023-05-01T01:42:43.210Z,8.13
2023-05-01T01:45:24.048Z,8.10
2023-05-01T01:47:54.833Z,8.14
2023-05-01T01:50:27.200Z,8.18
2023-05-01T01:53:00.542Z,8.12
2023-05-01T01:55:31.829Z,8.18
2023-05-01T01:58:02.954Z,8.20
2023-05-01T02:00:34.557Z,8.18
2023-05-01T02:03:03.894Z,8.17
2023-05-01T02:05:33.253Z,8.10
2023-05-01T02:08:03.728Z,8.13
2023-05-01T02:10:34.287Z,7.99
2023-05-01T02:13:03.879Z,8.03
2023-05-01T02:15:35.006Z,8.04
2023-05-01T02:18:05.222Z,8.13
2023-05-01T02:20:34.089Z,8.12
2023-05-01T02:23:03.841Z,8.18
2023-05-01T02:25:35.455Z,8.04
2023-05-01T02:28:09.144Z,8.03
2023-05-01T02:30:39.123Z,8.09
2023-05-01T02:33:09.082Z,8.00
2023-05-01T02:35:44.780Z,7.97
2023-05-01T02:38:13.548Z,7.86
2023-05-01T02:40:46.980Z,7.95
2023-05-01T02:43:18.431Z,8.04
2023-05-01T02:45:48.823Z,8.05
2023-05-01T02:48:23.784Z,8.05
2023-05-01T02:50:54.180Z,8.03
2023-05-01T02:53:22.847Z,8.03
2023-05-01T02:55:51.320Z,7.83
2023-05-01T02:58:20.553Z,7.79
2023-05-01T03:00:50.085Z,7.85
2023-05-01T03:03:19.530Z,7.86
2023-05-01T03:05:48.222Z,7.82
2023-05-01T03:08:16.350Z,7.77
2023-05-01T03:10:44.833Z,7.62
2023-05-01T03:13:13.236Z,7.48
2023-05-01T03:15:41.381Z,7.54
2023-05-01T03:18:09.919Z,7.54
2023-05-01T03:20:38.456Z,7.54
2023-05-01T03:23:07.683Z,7.50
2023-05-01T03:25:37.247Z,7.42
2023-05-01T03:28:05.835Z,7.30
2023-05-01T03:30:36.313Z,7.39
2023-05-01T03:33:04.979Z,7.39
2023-05-01T03:35:33.661Z,7.39
2023-05-01T03:38:02.016Z,7.44
2023-05-01T03:40:39.269Z,7.48
2023-05-01T03:43:11.991Z,7.19
2023-05-01T03:45:42.266Z,7.17
2023-05-01T03:48:13.813Z,7.21
2023-05-01T03:50:42.897Z,7.30
2023-05-01T03:53:11.362Z,7.31
2023-05-01T03:55:42.385Z,7.39
2023-05-01T03:58:11.332Z,7.00
2023-05-01T04:00:39.925Z,7.20
2023-05-01T04:03:08.720Z,7.09
2023-05-01T04:05:37.448Z,7.17
2023-05-01T04:08:06.553Z,7.38
2023-05-01T04:10:35.134Z,7.39
2023-05-01T04:13:04.363Z,7.16
2023-05-01T04:15:32.549Z,7.35
2023-05-01T04:18:01.618Z,7.50
2023-05-01T04:20:30.249Z,7.64
2023-05-01T04:22:58.328Z,7.59
2023-05-01T04:25:27.428Z,7.48
2023-05-01T04:27:57.626Z,7.33
2023-05-01T04:30:26.037Z,7.60
2023-05-01T04:32:54.753Z,7.56
2023-05-01T04:35:23.841Z,7.48
2023-05-01T04:37:52.223Z,7.53
2023-05-01T04:40:21.051Z,7.57
2023-05-01T04:42:50.336Z,7.71
2023-05-01T04:45:18.505Z,7.90
2023-05-01T04:47:47.422Z,7.94
2023-05-01T04:50:15.728Z,8.04
2023-05-01T04:52:43.938Z,8.02
2023-05-01T04:55:12.421Z,8.16
2023-05-01T04:57:43.516Z,8.26
2023-05-01T05:00:12.345Z,8.38
2023-05-01T05:02:42.653Z,8.17
2023-05-01T05:05:11.856Z,8.41
2023-05-01T05:07:40.747Z,8.59
2023-05-01T05:10:11.325Z,8.73
2023-05-01T05:12:40.345Z,8.80
2023-05-01T05:15:09.034Z,8.94
2023-05-01T05:17:37.547Z,8.92
2023-05-01T05:20:07.667Z,8.98
2023-05-01T05:22:37.623Z,9.14
2023-05-01T05:25:09.144Z,9.15
2023-05-01T05:27:38.365Z,9.22
2023-05-01T05:30:07.894Z,9.27
2023-05-01T05:32:37.644Z,9.41
2023-05-01T05:35:07.168Z,9.56
2023-05-01T05:37:35.674Z,9.71
2023-05-01T05:40:04.850Z,9.83
2023-05-01T05:42:34.149Z,9.92
2023-05-01T05:45:05.964Z,10.05
2023-05-01T05:47:34.343Z,10.14
2023-05-01T05:50:03.034Z,10.27
2023-05-01T05:52:31.555Z,10.20
2023-05-01T05:55:00.371Z,10.30
2023-05-01T05:57:29.254Z,10.35
2023-05-01T05:59:58.224Z,10.48
2023-05-01T06:02:27.095Z,10.56
2023-05-01T06:04:56.564Z,10.69
2023-05-01T06:07:29.124Z,10.75
2023-05-01T06:10:05.399Z,10.81
2023-05-01T06:12:36.331Z,10.88
2023-05-01T06:15:07.421Z,10.97
2023-05-01T06:17:36.292Z,11.06
2023-05-01T06:20:06.337Z,11.14
2023-05-01T06:22:35.429Z,11.26
2023-05-01T06:25:07.192Z,11.31
2023-05-01T06:27:36.276Z,11.35
2023-05-01T06:30:05.389Z,11.41
2023-05-01T06:32:34.531Z,11.63
2023-05-01T06:35:03.074Z,11.71
2023-05-01T06:37:31.465Z,11.82
2023-05-01T06:39:59.941Z,11.98
2023-05-01T06:42:29.619Z,12.10
2023-05-01T06:45:03.898Z,12.25
2023-05-01T06:47:32.510Z,12.45
2023-05-01T06:50:02.921Z,12.52
2023-05-01T06:52:34.841Z,12.62
2023-05-01T06:55:03.820Z,12.71
2023-05-01T06:57:31.941Z,12.78
2023-05-01T07:00:01.107Z,12.91
2023-05-01T07:02:30.978Z,13.01
2023-05-01T07:05:02.548Z,13.23
2023-05-01T07:07:31.586Z,13.49
2023-05-01T07:10:00.019Z,13.61
2023-05-01T07:12:29.752Z,13.69
2023-05-01T07:14:58.220Z,13.81
2023-05-01T07:17:26.697Z,13.90
2023-05-01T07:19:55.500Z,14.24
2023-05-01T07:22:24.262Z,14.35
2023-05-01T07:24:52.473Z,14.38
2023-05-01T07:27:21.244Z,14.60
2023-05-01T07:29:50.827Z,14.72
2023-05-01T07:32:19.297Z,14.95
2023-05-01T07:34:47.814Z,15.27
2023-05-01T07:37:16.309Z,15.74
2023-05-01T07:39:45.034Z,16.18
2023-05-01T07:42:13.344Z,16.60
2023-05-01T07:44:42.079Z,16.25
2023-05-01T07:47:10.426Z,16.79
2023-05-01T07:49:39.217Z,17.39
2023-05-01T07:52:07.892Z,17.66
2023-05-01T07:54:36.090Z,17.99
2023-05-01T07:57:06.671Z,17.27
2023-05-01T07:59:35.129Z,17.56
2023-05-01T08:02:03.479Z,17.68
2023-05-01T08:04:32.807Z,17.87
2023-05-01T08:07:01.003Z,18.60
2023-05-01T08:09:29.250Z,18.38
2023-05-01T08:11:58.255Z,19.15
2023-05-01T08:14:26.430Z,19.54
2023-05-01T08:16:55.538Z,19.59
2023-05-01T08:19:24.614Z,19.59
2023-05-01T08:21:53.947Z,19.17
2023-05-01T08:24:22.124Z,19.47
2023-05-01T08:26:51.600Z,20.02
2023-05-01T08:29:19.832Z,19.54
2023-05-01T08:31:48.088Z,20.49
2023-05-01T08:34:17.564Z,19.71
2023-05-01T08:36:45.745Z,20.58
2023-05-01T08:39:15.364Z,20.16
2023-05-01T08:41:46.545Z,20.78
2023-05-01T08:44:19.677Z,20.67
2023-05-01T08:46:58.032Z,20.68
2023-05-01T08:49:28.379Z,21.25
2023-05-01T08:51:57.486Z,20.22
2023-05-01T08:54:29.259Z,20.86
2023-05-01T08:57:03.641Z,20.28
2023-05-01T08:59:35.905Z,19.70
2023-05-01T09:02:06.555Z,20.66
2023-05-01T09:04:40.109Z,20.89
2023-05-01T09:07:10.201Z,20.95
2023-05-01T09:09:38.425Z,20.13
2023-05-01T09:12:22.310Z,20.64
2023-05-01T09:14:53.080Z,21.09
2023-05-01T09:17:22.698Z,21.64
2023-05-01T09:19:51.961Z,21.66
2023-05-01T09:22:21.407Z,21.42
2023-05-01T09:24:49.673Z,21.27
2023-05-01T09:27:19.354Z,21.49
2023-05-01T09:29:48.763Z,20.85
2023-05-01T09:32:21.857Z,20.81
2023-05-01T09:34:55.176Z,20.95
2023-05-01T09:37:27.812Z,21.16
2023-05-01T09:40:07.290Z,20.09
2023-05-01T09:42:41.092Z,21.09
2023-05-01T09:45:14.702Z,21.36
2023-05-01T09:47:44.196Z,21.68
2023-05-01T09:50:29.667Z,21.80
2023-05-01T09:52:58.620Z,22.26
2023-05-01T09:55:27.400Z,21.90
2023-05-01T09:57:56.019Z,21.86
2023-05-01T10:00:25.297Z,21.67
2023-05-01T10:02:54.130Z,21.45
2023-05-01T10:05:23.231Z,20.79
2023-05-01T10:08:03.855Z,21.17
2023-05-01T10:10:32.427Z,21.69
2023-05-01T10:13:17.673Z,21.70
2023-05-01T10:15:50.163Z,20.93
2023-05-01T10:18:18.903Z,21.12
2023-05-01T10:20:47.501Z,21.54
2023-05-01T10:23:15.726Z,21.99
2023-05-01T10:25:45.105Z,21.46
2023-05-01T10:28:14.392Z,21.44
2023-05-01T10:30:45.644Z,21.05
2023-05-01T10:33:15.036Z,21.52
2023-05-01T10:35:48.048Z,21.51
2023-05-01T10:38:24.369Z,21.88
2023-05-01T10:40:52.742Z,21.88
2023-05-01T10:43:28.057Z,21.18
2023-05-01T10:46:08.438Z,21.68
2023-05-01T10:48:44.001Z,21.60
2023-05-01T10:51:25.669Z,21.49
2023-05-01T10:54:14.503Z,21.27
2023-05-01T10:56:44.139Z,20.44
2023-05-01T10:59:13.262Z,21.02
2023-05-01T11:01:43.209Z,20.47
2023-05-01T11:04:21.902Z,19.77
2023-05-01T11:07:05.972Z,20.32
2023-05-01T11:09:47.408Z,20.54
2023-05-01T11:12:45.257Z,20.57
2023-05-01T11:15:29.390Z,20.10
2023-05-01T11:17:59.666Z,20.30
2023-05-01T11:20:29.147Z,20.29
2023-05-01T11:22:59.127Z,20.40
2023-05-01T11:25:30.651Z,20.52
2023-05-01T11:28:01.658Z,20.36
2023-05-01T11:30:40.535Z,20.37
2023-05-01T11:33:10.641Z,20.37
2023-05-01T11:35:39.427Z,20.43
2023-05-01T11:38:18.730Z,20.29
2023-05-01T11:40:55.537Z,20.18
2023-05-01T11:43:23.878Z,20.33
2023-05-01T11:46:02.501Z,19.99
2023-05-01T11:48:32.736Z,19.71
2023-05-01T11:51:01.279Z,19.99
2023-05-01T11:53:30.034Z,19.59
2023-05-01T11:56:01.067Z,19.89
2023-05-01T11:58:34.497Z,19.98
2023-05-01T12:01:03.622Z,19.81
2023-05-01T12:03:42.718Z,19.77
2023-05-01T12:06:15.408Z,19.76
2023-05-01T12:08:47.539Z,19.84
2023-05-01T12:11:16.115Z,19.62
2023-05-01T12:13:47.901Z,19.44
2023-05-01T12:16:16.852Z,19.37
2023-05-01T12:18:45.853Z,19.13
2023-05-01T12:21:21.562Z,19.34
2023-05-01T12:23:50.629Z,19.40
2023-05-01T12:26:20.459Z,19.45
2023-05-01T12:29:00.253Z,19.46
2023-05-01T12:31:30.156Z,19.29
2023-05-01T12:34:08.806Z,19.39
2023-05-01T12:36:37.730Z,19.46
2023-05-01T12:39:09.076Z,19.44
2023-05-01T12:41:47.800Z,19.63
2023-05-01T12:44:25.548Z,19.56
2023-05-01T12:46:56.758Z,19.67
2023-05-01T12:49:25.839Z,19.80
2023-05-01T12:51:56.231Z,19.91
2023-05-01T12:54:27.551Z,19.92
2023-05-01T12:57:25.343Z,20.11
2023-05-01T13:00:01.292Z,19.80
2023-05-01T13:02:34.431Z,19.83
2023-05-01T13:05:11.168Z,19.83
2023-05-01T13:07:40.293Z,19.49
2023-05-01T13:10:09.148Z,19.64
2023-05-01T13:12:44.832Z,19.78
2023-05-01T13:15:21.627Z,19.96
2023-05-01T13:17:50.147Z,19.81
2023-05-01T13:20:26.928Z,19.97
2023-05-01T13:22:55.743Z,19.82
2023-05-01T13:25:25.518Z,19.85
2023-05-01T13:27:54.294Z,20.00
2023-05-01T13:30:32.365Z,19.97
2023-05-01T13:33:02.012Z,19.77
2023-05-01T13:35:31.670Z,19.83
2023-05-01T13:38:12.817Z,19.87
2023-05-01T13:40:41.818Z,19.91
2023-05-01T13:43:17.175Z,19.84
2023-05-01T13:45:47.409Z,19.65
2023-05-01T13:48:17.346Z,19.83
2023-05-01T13:50:45.971Z,19.82
2023-05-01T13:53:17.198Z,19.84
2023-05-01T13:55:45.718Z,19.85
2023-05-01T13:58:15.261Z,19.74
2023-05-01T14:00:45.724Z,19.78
2023-05-01T14:03:17.322Z,19.73
2023-05-01T14:05:47.783Z,19.69
2023-05-01T14:08:20.917Z,19.72
2023-05-01T14:10:49.099Z,19.60
2023-05-01T14:13:19.152Z,19.67
2023-05-01T14:15:48.297Z,19.88
2023-05-01T14:18:20.872Z,19.86
2023-05-01T14:20:49.404Z,19.91
2023-05-01T14:23:20.812Z,20.03
2023-05-01T14:25:49.220Z,19.94
2023-05-01T14:28:18.457Z,20.17
2023-05-01T14:30:49.512Z,20.04
2023-05-01T14:33:18.931Z,20.32
2023-05-01T14:35:52.047Z,20.09
2023-05-01T14:38:22.067Z,19.98
2023-05-01T14:40:50.405Z,20.03
2023-05-01T14:43:22.480Z,19.96
2023-05-01T14:45:51.275Z,20.11
2023-05-01T14:48:24.486Z,19.90
2023-05-01T14:50:55.032Z,20.06
2023-05-01T14:53:23.379Z,20.02
2023-05-01T14:55:52.523Z,19.87
2023-05-01T14:58:21.093Z,19.83
2023-05-01T15:00:49.299Z,19.86
2023-05-01T15:03:18.384Z,19.72
2023-05-01T15:05:47.120Z,19.65
2023-05-01T15:08:15.237Z,19.72
2023-05-01T15:10:45.114Z,19.73
2023-05-01T15:13:13.688Z,19.83
2023-05-01T15:15:41.872Z,19.73
2023-05-01T15:18:10.379Z,19.74
2023-05-01T15:20:38.969Z,19.77
2023-05-01T15:23:07.328Z,19.68
2023-05-01T15:25:35.709Z,19.79
2023-05-01T15:28:04.432Z,19.73
2023-05-01T15:30:33.118Z,19.77
2023-05-01T15:33:01.440Z,19.77
2023-05-01T15:35:30.203Z,19.77
2023-05-01T15:37:58.442Z,19.67
2023-05-01T15:40:26.751Z,19.63
2023-05-01T15:42:55.251Z,19.56
2023-05-01T15:45:23.698Z,19.40
2023-05-01T15:47:52.242Z,19.26
2023-05-01T15:50:22.095Z,19.17
2023-05-01T15:52:51.136Z,19.20
2023-05-01T15:55:19.702Z,19.14
2023-05-01T15:57:48.883Z,19.10
2023-05-01T16:00:18.729Z,19.07
2023-05-01T16:02:47.451Z,18.97
2023-05-01T16:05:19.583Z,18.84
2023-05-01T16:07:53.692Z,18.80
2023-05-01T16:10:22.738Z,18.84
2023-05-01T16:12:53.316Z,18.81
2023-05-01T16:15:23.123Z,18.74
2023-05-01T16:17:52.066Z,18.70
2023-05-01T16:20:21.247Z,18.67
2023-05-01T16:22:49.977Z,18.64
2023-05-01T16:25:18.610Z,18.69
2023-05-01T16:27:47.604Z,18.60
2023-05-01T16:30:16.226Z,18.54
2023-05-01T16:32:52.762Z,18.47
2023-05-01T16:35:27.435Z,18.38
2023-05-01T16:37:56.562Z,18.23
2023-05-01T16:40:24.871Z,18.19
2023-05-01T16:42:54.970Z,18.13
2023-05-01T16:45:23.450Z,18.09
2023-05-01T16:47:51.972Z,18.04
2023-05-01T16:50:22.239Z,17.93
2023-05-01T16:52:58.342Z,17.92
2023-05-01T16:55:28.607Z,17.83
2023-05-01T16:57:57.319Z,17.75
2023-05-01T17:00:32.347Z,17.70
2023-05-01T17:03:01.063Z,17.62
2023-05-01T17:05:29.436Z,17.58
2023-05-01T17:07:58.042Z,17.53
2023-05-01T17:10:26.830Z,17.48
2023-05-01T17:12:55.407Z,17.50
2023-05-01T17:15:24.179Z,17.40
2023-05-01T17:17:52.761Z,17.34
2023-05-01T17:20:21.337Z,17.22
2023-05-01T17:22:49.527Z,17.18
2023-05-01T17:25:18.309Z,17.11
2023-05-01T17:27:46.619Z,17.03
2023-05-01T17:30:15.144Z,16.98
2023-05-01T17:32:44.025Z,16.91
2023-05-01T17:35:12.290Z,16.83
2023-05-01T17:37:40.578Z,16.77
2023-05-01T17:40:11.409Z,16.70
2023-05-01T17:42:39.860Z,16.62
2023-05-01T17:45:10.570Z,16.56
2023-05-01T17:47:41.728Z,16.46
2023-05-01T17:50:12.996Z,16.40
2023-05-01T17:52:43.333Z,16.30
2023-05-01T17:55:13.340Z,16.24
2023-05-01T17:57:42.968Z,16.18
2023-05-01T18:00:12.367Z,16.08
2023-05-01T18:02:44.780Z,16.03
2023-05-01T18:05:13.674Z,15.94
2023-05-01T18:07:43.111Z,15.85
2023-05-01T18:10:11.702Z,15.77
2023-05-01T18:12:40.642Z,15.66
2023-05-01T18:15:09.750Z,15.55
2023-05-01T18:17:37.863Z,15.52
2023-05-01T18:20:07.538Z,15.48
2023-05-01T18:22:35.893Z,15.45
2023-05-01T18:25:06.519Z,15.38
2023-05-01T18:27:37.517Z,15.31
2023-05-01T18:30:06.674Z,15.26
2023-05-01T18:32:47.476Z,15.15
2023-05-01T18:35:17.803Z,15.04
2023-05-01T18:37:46.789Z,14.95
2023-05-01T18:40:15.454Z,14.96
2023-05-01T18:42:44.120Z,14.90
2023-05-01T18:45:14.266Z,14.83
2023-05-01T18:47:42.831Z,14.80
2023-05-01T18:50:11.642Z,14.72
2023-05-01T18:52:41.943Z,14.72
2023-05-01T18:55:11.668Z,14.61
2023-05-01T18:57:43.781Z,14.54
2023-05-01T19:00:14.329Z,14.49
2023-05-01T19:02:44.788Z,14.44
2023-05-01T19:05:14.068Z,14.39
2023-05-01T19:07:42.970Z,14.31
2023-05-01T19:10:11.705Z,14.24
2023-05-01T19:12:41.859Z,14.18
2023-05-01T19:15:11.091Z,14.14
2023-05-01T19:17:40.358Z,14.13
2023-05-01T19:20:09.273Z,14.05
2023-05-01T19:22:38.196Z,14.01
2023-05-01T19:25:07.256Z,13.95
2023-05-01T19:27:35.845Z,13.91
2023-05-01T19:30:05.273Z,13.80
2023-05-01T19:32:34.556Z,13.58
2023-05-01T19:35:03.536Z,13.59
2023-05-01T19:37:32.573Z,13.65
2023-05-01T19:40:01.144Z,13.59
2023-05-01T19:42:30.719Z,13.57
2023-05-01T19:44:59.718Z,13.45
2023-05-01T19:47:28.431Z,13.22
2023-05-01T19:49:56.969Z,13.08
2023-05-01T19:52:27.735Z,12.93
2023-05-01T19:54:56.559Z,13.12
2023-05-01T19:57:25.195Z,13.11
2023-05-01T19:59:55.266Z,13.11
2023-05-01T20:02:24.013Z,13.11
2023-05-01T20:04:52.541Z,13.04
2023-05-01T20:07:21.370Z,12.93
2023-05-01T20:09:50.018Z,12.69
2023-05-01T20:12:18.545Z,12.77
2023-05-01T20:14:46.797Z,12.69
2023-05-01T20:17:15.149Z,12.76
2023-05-01T20:19:43.813Z,12.60
2023-05-01T20:22:12.164Z,12.37
2023-05-01T20:24:40.730Z,12.25
2023-05-01T20:27:09.314Z,12.29
2023-05-01T20:29:37.512Z,12.39
2023-05-01T20:32:06.373Z,12.33
2023-05-01T20:34:34.982Z,12.17
2023-05-01T20:37:03.955Z,12.05
2023-05-01T20:39:32.702Z,12.05
2023-05-01T20:42:01.383Z,12.03
2023-05-01T20:44:29.474Z,11.95
2023-05-01T20:46:57.690Z,11.95
2023-05-01T20:49:26.157Z,12.12
2023-05-01T20:51:56.884Z,11.98
2023-05-01T20:54:25.505Z,11.94
2023-05-01T20:56:53.680Z,12.00
2023-05-01T20:59:22.108Z,11.99
2023-05-01T21:01:50.859Z,12.10
2023-05-01T21:04:19.489Z,12.05
2023-05-01T21:06:47.692Z,11.87
2023-05-01T21:09:16.646Z,11.36
2023-05-01T21:11:45.113Z,11.40
2023-05-01T21:14:13.249Z,11.31
2023-05-01T21:16:42.406Z,11.36
2023-05-01T21:19:11.976Z,11.04
2023-05-01T21:21:40.289Z,11.13
2023-05-01T21:24:09.909Z,10.99
2023-05-01T21:26:38.768Z,11.12
2023-05-01T21:29:06.896Z,11.17
2023-05-01T21:31:36.970Z,11.24
2023-05-01T21:34:06.992Z,11.37
2023-05-01T21:36:44.963Z,11.35
2023-05-01T21:39:13.435Z,11.05
2023-05-01T21:41:42.092Z,11.14
2023-05-01T21:44:10.323Z,11.05
2023-05-01T21:46:38.710Z,11.07
2023-05-01T21:49:07.815Z,11.11
2023-05-01T21:51:36.103Z,10.94
2023-05-01T21:54:04.909Z,11.20
2023-05-01T21:56:33.453Z,10.88
2023-05-01T21:59:05.192Z,10.75
2023-05-01T22:01:33.783Z,10.87
2023-05-01T22:04:02.598Z,11.02
2023-05-01T22:06:31.869Z,10.69
2023-05-01T22:09:00.086Z,10.59
2023-05-01T22:11:28.923Z,10.76
2023-05-01T22:13:58.640Z,10.67
2023-05-01T22:16:26.817Z,10.58
2023-05-01T22:18:55.573Z,10.59
2023-05-01T22:21:23.998Z,10.66
2023-05-01T22:23:52.254Z,10.47
2023-05-01T22:26:20.861Z,10.08
2023-05-01T22:28:49.940Z,10.18
2023-05-01T22:31:18.314Z,10.17
2023-05-01T22:33:47.778Z,10.18
2023-05-01T22:36:16.064Z,10.34
2023-05-01T22:38:44.237Z,10.35
2023-05-01T22:41:13.031Z,10.30
2023-05-01T22:43:41.970Z,10.23
2023-05-01T22:46:10.157Z,10.26
2023-05-01T22:48:38.789Z,10.23
2023-05-01T22:51:07.715Z,10.26
2023-05-01T22:53:35.945Z,10.38
2023-05-01T22:56:04.822Z,10.32
2023-05-01T22:58:33.263Z,10.41
2023-05-01T23:01:01.444Z,10.49
2023-05-01T23:03:31.414Z,10.51
2023-05-01T23:06:00.330Z,10.39
2023-05-01T23:08:28.486Z,10.20
2023-05-01T23:10:57.051Z,10.21
2023-05-01T23:13:27.583Z,10.19
2023-05-01T23:15:55.815Z,10.22
2023-05-01T23:18:30.834Z,10.31
2023-05-01T23:20:59.295Z,10.15
2023-05-01T23:23:30.589Z,10.12
2023-05-01T23:25:58.897Z,10.07
2023-05-01T23:28:28.438Z,10.18
2023-05-01T23:30:59.069Z,10.04
2023-05-01T23:33:34.520Z,10.15
2023-05-01T23:36:02.877Z,10.34
2023-05-01T23:38:31.386Z,10.30
2023-05-01T23:40:59.967Z,10.34
2023-05-01T23:43:28.106Z,10.39
2023-05-01T23:45:57.001Z,10.37
2023-05-01T23:48:25.373Z,10.32
2023-05-01T23:50:53.711Z,10.03
2023-05-01T23:53:22.668Z,10.23
2023-05-01T23:55:51.405Z,10.03
2023-05-01T23:58:19.564Z,9.93
